Map

Track Data

SID SEASON NUMBER BASIN SUBBASIN NAME ISO_TIME NATURE LAT LON WMO_WIND WMO_PRES WMO_AGENCY TRACK_TYPE DIST2LAND LANDFALL IFLAG USA_AGENCY USA_ATCF_ID USA_LAT USA_LON USA_RECORD USA_STATUS USA_WIND USA_PRES USA_SSHS USA_R34_NE USA_R34_SE USA_R34_SW USA_R34_NW USA_R50_NE USA_R50_SE USA_R50_SW USA_R50_NW USA_R64_NE USA_R64_SE USA_R64_SW USA_R64_NW USA_POCI USA_ROCI USA_RMW USA_EYE TOKYO_LAT TOKYO_LON TOKYO_GRADE TOKYO_WIND TOKYO_PRES TOKYO_R50_DIR TOKYO_R50_LONG TOKYO_R50_SHORT TOKYO_R30_DIR TOKYO_R30_LONG TOKYO_R30_SHORT TOKYO_LAND CMA_LAT CMA_LON CMA_CAT CMA_WIND CMA_PRES HKO_LAT HKO_LON HKO_CAT HKO_WIND HKO_PRES NEWDELHI_LAT NEWDELHI_LON NEWDELHI_GRADE NEWDELHI_WIND NEWDELHI_PRES NEWDELHI_CI NEWDELHI_DP NEWDELHI_POCI REUNION_LAT REUNION_LON REUNION_TYPE REUNION_WIND REUNION_PRES REUNION_TNUM REUNION_CI REUNION_RMW REUNION_R34_NE REUNION_R34_SE REUNION_R34_SW REUNION_R34_NW REUNION_R50_NE REUNION_R50_SE REUNION_R50_SW REUNION_R50_NW REUNION_R64_NE REUNION_R64_SE REUNION_R64_SW REUNION_R64_NW BOM_LAT BOM_LON BOM_TYPE BOM_WIND BOM_PRES BOM_TNUM BOM_CI BOM_RMW BOM_R34_NE BOM_R34_SE BOM_R34_SW BOM_R34_NW BOM_R50_NE BOM_R50_SE BOM_R50_SW BOM_R50_NW BOM_R64_NE BOM_R64_SE BOM_R64_SW BOM_R64_NW BOM_ROCI BOM_POCI BOM_EYE BOM_POS_METHOD BOM_PRES_METHOD NADI_LAT NADI_LON NADI_CAT NADI_WIND NADI_PRES WELLINGTON_LAT WELLINGTON_LON WELLINGTON_WIND WELLINGTON_PRES DS824_LAT DS824_LON DS824_STAGE DS824_WIND DS824_PRES TD9636_LAT TD9636_LON TD9636_STAGE TD9636_WIND TD9636_PRES TD9635_LAT TD9635_LON TD9635_WIND TD9635_PRES TD9635_ROCI NEUMANN_LAT NEUMANN_LON NEUMANN_CLASS NEUMANN_WIND NEUMANN_PRES MLC_LAT MLC_LON MLC_CLASS MLC_WIND MLC_PRES USA_GUST BOM_GUST BOM_GUST_PER REUNION_GUST REUNION_GUST_PER USA_SEAHGT USA_SEARAD_NE USA_SEARAD_SE USA_SEARAD_SW USA_SEARAD_NW STORM_SPEED STORM_DIR
1967331N06085 1967 138 NI BB NOT_NAMED 1967-11-26 18:00:00 TS 6.10000 84.6000 main 315 315 O________O____ jtwc_io IO141967 6.10000 84.6000 -1 6.10000 84.6000 TC 1 207
1967331N06085 1967 138 NI BB NOT_NAMED 1967-11-26 21:00:00 TS 6.05000 84.5750 main 315 308 P________P____ IO141967 6.05000 84.5750 -1 6.05000 84.5750 TC 1 223
1967331N06085 1967 138 NI BB NOT_NAMED 1967-11-27 00:00:00 TS 6.00000 84.5000 main 308 292 O________O____ jtwc_io IO141967 6.00000 84.5000 -1 6.00000 84.5000 TC 25 3 246
1967331N06085 1967 138 NI BB NOT_NAMED 1967-11-27 03:00:00 TS 5.94444 84.3333 main 292 272 P________PO___ IO141967 5.94999 84.3375 -1 5.94999 84.3375 TC 25 5.90000 84.3000 1 4 255
1967331N06085 1967 138 NI BB NOT_NAMED 1967-11-27 06:00:00 TS 5.88725 84.0719 main 272 245 O________OP___ jtwc_io IO141967 5.90000 84.1000 -1 5.90000 84.1000 TC 25 5.83625 83.9593 1 6 259
1967331N06085 1967 138 NI BB NOT_NAMED 1967-11-27 09:00:00 TS 5.83035 83.7632 main 245 214 P________PP___ IO141967 5.85002 83.8075 -1 5.85002 83.8075 TC 25 5.77789 83.6449 1 6 260
1967331N06085 1967 138 NI BB NOT_NAMED 1967-11-27 12:00:00 TS 5.77686 83.4610 main 214 188 O________OP___ jtwc_io IO141967 5.80000 83.5000 -1 5.80000 83.5000 TC 25 5.73057 83.3831 1 6 260
1967331N06085 1967 138 NI BB NOT_NAMED 1967-11-27 15:00:00 TS 5.72834 83.2083 main 188 169 P________PO___ IO141967 5.74251 83.2125 -1 5.74251 83.2125 TC 25 5.70000 83.2000 1 4 259
1967331N06085 1967 138 NI BB NOT_NAMED 1967-11-27 18:00:00 TS 5.69646 83.0350 main 169 169 O________OP___ jtwc_io IO141967 5.70000 83.0000 -1 5.70000 83.0000 TC 25 5.68939 83.1050 1 2 261
1967331N06085 1967 138 NI BB NOT_NAMED 1967-11-27 21:00:00 TS 5.69230 82.9900 main 169 160 P________PP___ IO141967 5.69245 82.9650 -1 5.69245 82.9650 TC 25 5.69202 83.0400 1 1 271
1967331N06085 1967 138 NI BB NOT_NAMED 1967-11-28 00:00:00 TS 5.69955 82.9100 main 160 142 O________OP___ jtwc_io IO141967 5.70000 82.9000 -1 5.70000 82.9000 TC 25 5.69866 82.9300 1 3 272
1967331N06085 1967 138 NI BB NOT_NAMED 1967-11-28 03:00:00 TS 5.70495 82.6600 main 142 105 P________PO___ IO141967 5.70743 82.6400 -1 5.70743 82.6400 TC 25 5.70000 82.7000 1 7 269
1967331N06085 1967 138 NI BB NOT_NAMED 1967-11-28 06:00:00 TS 5.69154 82.2005 main 105 65 O________OP___ jtwc_io IO141967 5.70000 82.2000 -1 5.70000 82.2000 TC 25 5.67463 82.2015 1 11 267
1967331N06085 1967 138 NI BB NOT_NAMED 1967-11-28 09:00:00 TS 5.64788 81.5674 main 74 49 P________PP___ IO141967 5.65016 81.5574 -1 5.65016 81.5574 TC 25 5.64333 81.5874 1 13 266
1967331N06085 1967 138 NI BB NOT_NAMED 1967-11-28 12:00:00 TS 5.60509 80.9182 main 46 33 O________OP___ jtwc_io IO141967 5.60000 80.9000 -1 5.60000 80.9000 TC 25 5.61526 80.9546 1 11 267
1967331N06085 1967 138 NI BB NOT_NAMED 1967-11-28 15:00:00 TS 5.59495 80.4217 main 40 40 P________PO___ IO141967 5.59243 80.4325 -1 5.59243 80.4325 TC 25 5.60000 80.4000 1 8 270
1967331N06085 1967 138 NI BB NOT_NAMED 1967-11-28 18:00:00 TS 5.60071 80.0883 main 49 49 O________OP___ jtwc_io IO141967 5.60000 80.1000 -1 5.60000 80.1000 TC 25 5.60214 80.0648 1 6 270
1967331N06085 1967 138 NI BB NOT_NAMED 1967-11-28 21:00:00 TS 5.59648 79.8625 main 63 63 P________PP___ IO141967 5.58493 79.8850 -1 5.58493 79.8850 TC 25 5.61955 79.8176 1 4 272
1967331N06085 1967 138 NI BB NOT_NAMED 1967-11-29 00:00:00 TS 5.61741 79.6705 main 78 78 O________OP___ jtwc_io IO141967 5.60000 79.7000 -1 5.60000 79.7000 TC 25 5.65222 79.6116 1 5 282
1967331N06085 1967 138 NI BB NOT_NAMED 1967-11-29 03:00:00 TS 5.69500 79.4100 main 95 95 P________PO___ IO141967 5.69251 79.4150 -1 5.69251 79.4150 TC 25 5.70000 79.4000 1 6 286
1967331N06085 1967 138 NI BB NOT_NAMED 1967-11-29 06:00:00 TS 5.78554 79.0994 main 119 119 O________OP___ jtwc_io IO141967 5.80000 79.1000 -1 5.80000 79.1000 TC 25 5.75660 79.0982 1 6 283
1967331N06085 1967 138 NI BB NOT_NAMED 1967-11-29 09:00:00 TS 5.84252 78.7900 main 150 150 P________PP___ IO141967 5.84999 78.7925 -1 5.84999 78.7925 TC 25 5.82757 78.7850 1 6 281
1967331N06085 1967 138 NI BB NOT_NAMED 1967-11-29 12:00:00 TS 5.90325 78.4931 main 180 180 O________OP___ jtwc_io IO141967 5.90000 78.5000 -1 5.90000 78.5000 TC 25 5.90974 78.4794 1 6 285
1967331N06085 1967 138 NI BB NOT_NAMED 1967-11-29 15:00:00 TS 5.99499 78.2233 main 208 208 P________PO___ IO141967 5.99249 78.2350 -1 5.99249 78.2350 TC 25 6.00000 78.2000 1 5 291
1967331N06085 1967 138 NI AS NOT_NAMED 1967-11-29 18:00:00 TS 6.09824 77.9843 main 224 215 O________OP___ jtwc_io IO141967 6.10000 78.0000 -1 6.10000 78.0000 TC 25 6.09559 77.9606 1 5 295
1967331N06085 1967 138 NI AS NOT_NAMED 1967-11-29 21:00:00 TS 6.19928 77.7764 main 215 201 P________PP___ IO141967 6.20251 77.7925 -1 6.20251 77.7925 TC 25 6.19496 77.7550 1 4 297
1967331N06085 1967 138 NI AS NOT_NAMED 1967-11-30 00:00:00 TS 6.29843 77.5860 main 201 190 O________OP___ jtwc_io IO141967 6.30000 77.6000 -1 6.30000 77.6000 TC 25 6.29686 77.5719 1 4 298
1967331N06085 1967 138 NI AS NOT_NAMED 1967-11-30 03:00:00 NR 6.40000 77.4000 main 190 __________O___ IO141967 -1 TC 6.40000 77.4000 1 4 298

About IBTrACS Database

This database is a web-friendly format of International Best Track Archive for Climate Stewardship (IBTrACS), a global best track data archive curated by NOAA dating back to 1842.

Updated: 2021-10-25